Time;durP1;ratioP1;P1;durP2;ratioP2;P2;SDS_P1;SDS_P2;PMS_P1;PMS_P2;Temp;Humidity;BMP_temperature;BMP_pressure;BME280_temperature;BME280_humidity;BME280_pressure;Samples;Min_cycle;Max_cycle;Signal;HPM_P1;HPM_P2
2022/08/24 00:00:24;;;;;;;7.80;7.10;;;16.60;99.90;;;;;;5057929;28;20231;-80
2022/08/24 00:02:51;;;;;;;8.33;7.63;;;16.60;99.90;;;;;;5061492;28;20239;-79
2022/08/24 00:05:20;;;;;;;7.63;7.07;;;16.60;99.90;;;;;;5053181;28;20201;-79
2022/08/24 00:07:48;;;;;;;7.87;7.07;;;16.60;99.90;;;;;;5063449;28;20278;-79
2022/08/24 00:10:16;;;;;;;8.30;7.57;;;16.50;99.90;;;;;;5057662;28;20217;-79
2022/08/24 00:12:43;;;;;;;7.83;7.13;;;16.50;99.90;;;;;;5055882;28;20300;-79
2022/08/24 00:15:12;;;;;;;7.87;7.27;;;16.40;99.90;;;;;;5041140;28;20257;-79
2022/08/24 00:17:39;;;;;;;8.07;7.27;;;16.40;99.90;;;;;;5060992;28;20205;-80
2022/08/24 00:20:09;;;;;;;7.70;6.87;;;16.30;99.90;;;;;;5055721;28;20194;-80
2022/08/24 00:22:39;;;;;;;8.03;7.33;;;16.30;99.90;;;;;;5057993;28;20202;-80
2022/08/24 00:25:08;;;;;;;7.90;7.20;;;16.30;99.90;;;;;;5063428;28;20199;-79
2022/08/24 00:27:35;;;;;;;7.20;6.60;;;16.30;99.90;;;;;;5066376;28;20258;-80
2022/08/24 00:30:04;;;;;;;7.90;7.30;;;16.20;99.90;;;;;;5066417;28;20201;-80
2022/08/24 00:32:31;;;;;;;8.10;7.40;;;16.20;99.90;;;;;;5065289;28;20756;-80
2022/08/24 00:34:58;;;;;;;7.83;7.23;;;16.20;99.90;;;;;;5063808;28;20264;-80
2022/08/24 00:37:25;;;;;;;8.20;7.50;;;16.10;99.90;;;;;;5065190;28;20250;-80
2022/08/24 00:39:53;;;;;;;8.27;7.43;;;16.20;99.90;;;;;;5063894;28;20242;-80
2022/08/24 00:42:20;;;;;;;8.00;7.23;;;16.20;99.90;;;;;;5060189;28;20309;-79
2022/08/24 00:44:46;;;;;;;8.60;7.30;;;16.20;99.90;;;;;;5059145;28;20224;-80
2022/08/24 00:47:19;;;;;;;8.00;7.40;;;16.10;99.90;;;;;;5052443;28;20198;-79
2022/08/24 00:49:53;;;;;;;7.73;7.03;;;16.00;99.90;;;;;;5050867;28;20733;-79
2022/08/24 00:52:25;;;;;;;8.00;7.30;;;16.00;99.90;;;;;;5061879;28;20227;-80
2022/08/24 00:54:58;;;;;;;8.20;7.40;;;16.00;99.90;;;;;;5056365;28;20202;-79
2022/08/24 00:57:29;;;;;;;8.70;7.90;;;16.00;99.90;;;;;;5059277;28;20199;-79
2022/08/24 00:59:59;;;;;;;8.40;7.70;;;16.00;99.90;;;;;;5062003;28;20195;-79
2022/08/24 01:02:30;;;;;;;8.80;8.10;;;15.90;99.90;;;;;;5057610;28;20580;-80
2022/08/24 01:05:00;;;;;;;8.40;7.70;;;15.90;99.90;;;;;;5055734;28;20209;-80
2022/08/24 01:07:29;;;;;;;8.50;7.80;;;15.90;99.90;;;;;;5051696;28;20201;-79
2022/08/24 01:10:03;;;;;;;7.77;7.07;;;15.80;99.90;;;;;;5059438;28;20205;-80
2022/08/24 01:12:32;;;;;;;8.37;7.57;;;15.90;99.90;;;;;;5058069;28;20209;-79
2022/08/24 01:15:02;;;;;;;7.60;7.00;;;15.90;99.90;;;;;;5053383;28;20210;-80
2022/08/24 01:20:14;;;;;;;8.00;7.40;;;16.00;99.90;;;;;;5050289;28;20216;-80
2022/08/24 01:23:03;;;;;;;8.03;7.37;;;16.00;99.90;;;;;;5053794;28;20215;-79
2022/08/24 01:25:33;;;;;;;8.33;7.60;;;16.10;99.90;;;;;;5051960;28;20201;-79
2022/08/24 01:28:04;;;;;;;8.20;7.40;;;16.10;99.90;;;;;;5061707;28;20208;-80
2022/08/24 01:30:31;;;;;;;8.23;7.43;;;16.10;99.90;;;;;;5055324;28;20272;-79
2022/08/24 01:33:01;;;;;;;8.67;7.93;;;16.10;99.90;;;;;;5055437;28;20200;-79
2022/08/24 01:35:29;;;;;;;8.70;8.00;;;16.10;99.90;;;;;;5053183;28;20205;-80
2022/08/24 01:38:00;;;;;;;8.40;7.47;;;16.00;99.90;;;;;;5059179;28;20194;-79
2022/08/24 01:40:35;;;;;;;8.83;7.80;;;15.90;99.90;;;;;;5055718;28;20225;-80
2022/08/24 01:43:04;;;;;;;8.40;7.60;;;15.80;99.90;;;;;;5052302;28;20224;-78
2022/08/24 01:45:32;;;;;;;8.37;7.63;;;15.70;99.90;;;;;;5053289;28;20196;-79
2022/08/24 01:48:01;;;;;;;8.37;7.67;;;15.60;99.90;;;;;;5058986;28;20676;-80
2022/08/24 01:53:02;;;;;;;9.07;8.00;;;15.50;99.90;;;;;;5038790;28;20218;-78
2022/08/24 01:55:29;;;;;;;8.40;7.80;;;15.50;99.90;;;;;;5043266;28;20205;-78
2022/08/24 01:57:58;;;;;;;8.73;7.93;;;15.50;99.90;;;;;;5055433;28;20196;-78
2022/08/24 02:00:25;;;;;;;8.30;7.53;;;15.50;99.90;;;;;;5024032;28;20292;-78
2022/08/24 02:02:52;;;;;;;8.70;8.00;;;15.40;99.90;;;;;;5063312;28;20222;-78
2022/08/24 02:05:19;;;;;;;8.50;7.80;;;15.40;99.90;;;;;;5046746;28;20248;-78
2022/08/24 02:07:47;;;;;;;8.10;7.40;;;15.40;99.90;;;;;;5052403;28;20206;-78
2022/08/24 02:10:15;;;;;;;8.20;7.50;;;15.30;99.90;;;;;;5045098;28;20204;-77
2022/08/24 02:12:56;;;;;;;8.20;7.40;;;15.30;99.90;;;;;;5046482;28;20278;-78
2022/08/24 02:15:29;;;;;;;8.80;8.10;;;15.30;99.90;;;;;;5036104;28;20201;-78
2022/08/24 02:17:57;;;;;;;8.90;8.10;;;15.30;99.90;;;;;;5046701;28;20205;-78
2022/08/24 02:20:26;;;;;;;8.87;8.07;;;15.30;99.90;;;;;;5063790;28;20190;-77
2022/08/24 02:22:54;;;;;;;9.43;8.63;;;15.30;99.90;;;;;;5041794;28;20701;-78
2022/08/24 02:25:22;;;;;;;9.53;8.43;;;15.30;99.90;;;;;;5036369;28;20618;-78
2022/08/24 02:27:49;;;;;;;8.90;8.20;;;15.20;99.90;;;;;;5076844;28;20206;-78
2022/08/24 02:30:17;;;;;;;9.50;8.60;;;15.20;99.90;;;;;;5076899;28;20279;-77
2022/08/24 02:32:46;;;;;;;8.93;8.23;;;15.20;99.90;;;;;;5041276;28;20211;-78
2022/08/24 02:35:13;;;;;;;9.40;8.60;;;15.20;99.90;;;;;;5074897;28;20191;-78
2022/08/24 02:37:40;;;;;;;8.60;7.90;;;15.20;99.90;;;;;;5044734;28;20207;-77
2022/08/24 02:40:08;;;;;;;8.73;8.03;;;15.20;99.90;;;;;;5050443;28;20203;-78
2022/08/24 02:42:35;;;;;;;8.73;8.03;;;15.10;99.90;;;;;;5051590;28;20218;-78
2022/08/24 02:45:04;;;;;;;8.43;7.83;;;15.10;99.90;;;;;;5089850;28;20189;-77
2022/08/24 02:47:32;;;;;;;9.10;8.40;;;15.10;99.90;;;;;;5051176;28;20221;-79
2022/08/24 02:50:01;;;;;;;8.73;7.97;;;15.10;99.90;;;;;;5045570;28;20197;-78
2022/08/24 02:52:28;;;;;;;8.20;7.60;;;15.10;99.90;;;;;;5038400;28;20245;-78
2022/08/24 02:54:55;;;;;;;8.77;8.17;;;15.10;99.90;;;;;;5040972;28;20218;-77
2022/08/24 02:57:23;;;;;;;8.63;7.93;;;15.00;99.90;;;;;;5043458;28;20217;-78
2022/08/24 02:59:50;;;;;;;9.73;8.93;;;15.00;99.90;;;;;;5044820;28;20202;-78
2022/08/24 03:02:17;;;;;;;9.07;8.27;;;14.90;99.90;;;;;;5044066;28;20694;-77
2022/08/24 03:04:45;;;;;;;8.90;8.20;;;14.90;99.90;;;;;;5074147;28;20675;-78
2022/08/24 03:07:14;;;;;;;9.13;8.43;;;14.90;99.90;;;;;;5046781;28;20282;-78
2022/08/24 03:09:41;;;;;;;8.87;8.17;;;14.80;99.90;;;;;;5040317;28;20203;-78
2022/08/24 03:12:09;;;;;;;8.90;8.27;;;14.90;99.90;;;;;;5041246;28;20223;-77
2022/08/24 03:14:37;;;;;;;8.93;8.23;;;14.90;99.90;;;;;;5041075;28;20191;-77
2022/08/24 03:17:04;;;;;;;9.40;8.50;;;14.90;99.90;;;;;;5062548;28;20255;-78
2022/08/24 03:19:32;;;;;;;8.90;8.10;;;14.90;99.90;;;;;;5044106;28;20201;-78
2022/08/24 03:21:59;;;;;;;8.77;8.07;;;14.80;99.90;;;;;;5046495;28;20221;-79
2022/08/24 03:24:27;;;;;;;8.70;8.10;;;14.80;99.90;;;;;;5045318;28;20224;-78
2022/08/24 03:26:55;;;;;;;9.27;8.57;;;14.70;99.90;;;;;;5041452;28;20254;-78
2022/08/24 03:29:22;;;;;;;9.47;8.47;;;14.70;99.90;;;;;;5056348;28;20221;-77
2022/08/24 03:31:49;;;;;;;9.57;8.77;;;14.70;99.90;;;;;;5044019;28;20228;-78
2022/08/24 03:34:18;;;;;;;9.33;8.63;;;14.70;99.90;;;;;;5038014;28;20215;-76
2022/08/24 03:36:46;;;;;;;9.20;8.50;;;14.60;99.90;;;;;;5062696;28;20232;-78
2022/08/24 03:39:15;;;;;;;8.67;7.97;;;14.60;99.90;;;;;;5036927;28;20202;-78
2022/08/24 03:41:44;;;;;;;9.97;9.23;;;14.60;99.90;;;;;;5043486;28;20261;-78
2022/08/24 03:44:11;;;;;;;9.67;8.77;;;14.50;99.90;;;;;;5076294;28;20313;-77
2022/08/24 03:46:38;;;;;;;9.17;8.47;;;14.50;99.90;;;;;;5049681;28;20202;-77
2022/08/24 03:49:08;;;;;;;9.10;8.40;;;14.40;99.90;;;;;;5077527;28;20201;-78
2022/08/24 03:51:37;;;;;;;9.27;8.57;;;14.40;99.90;;;;;;5038137;28;20236;-78
2022/08/24 03:54:08;;;;;;;9.97;9.03;;;14.40;99.90;;;;;;5043116;28;20573;-79
2022/08/24 03:56:35;;;;;;;10.43;9.50;;;14.30;99.90;;;;;;5076890;28;20200;-77
2022/08/24 03:59:04;;;;;;;9.50;8.80;;;14.20;99.90;;;;;;5037252;28;20204;-77
2022/08/24 04:01:37;;;;;;;9.93;9.10;;;14.20;99.90;;;;;;5073984;28;20943;-78
2022/08/24 04:04:05;;;;;;;10.10;9.20;;;14.20;99.90;;;;;;5070517;28;20265;-77
2022/08/24 04:06:35;;;;;;;9.47;8.77;;;14.20;99.90;;;;;;5045500;28;20358;-78
2022/08/24 04:09:02;;;;;;;9.97;9.17;;;14.20;99.90;;;;;;5039624;28;20197;-81
2022/08/24 04:11:33;;;;;;;9.87;9.10;;;14.20;99.90;;;;;;5066564;28;20219;-76
2022/08/24 04:14:00;;;;;;;10.33;9.53;;;14.20;99.90;;;;;;5072589;28;20286;-78
2022/08/24 04:16:29;;;;;;;9.80;8.90;;;14.10;99.90;;;;;;5050706;28;20675;-76
2022/08/24 04:19:06;;;;;;;9.90;9.10;;;14.10;99.90;;;;;;5051957;28;20730;-77
2022/08/24 04:21:35;;;;;;;9.37;8.67;;;14.10;99.90;;;;;;5045704;28;20278;-79
2022/08/24 04:24:05;;;;;;;10.87;10.07;;;14.10;99.90;;;;;;5048498;28;20211;-78
2022/08/24 04:26:32;;;;;;;10.77;9.77;;;14.10;99.90;;;;;;5048743;28;20211;-79
2022/08/24 04:29:01;;;;;;;10.70;9.80;;;14.10;99.90;;;;;;5051144;28;20219;-78
2022/08/24 04:31:29;;;;;;;10.60;9.70;;;14.10;99.90;;;;;;5049442;28;20228;-77
2022/08/24 04:33:57;;;;;;;10.40;9.60;;;14.10;99.90;;;;;;5049025;28;20623;-78
2022/08/24 04:36:24;;;;;;;10.63;9.73;;;14.10;99.90;;;;;;5044160;28;20280;-80
2022/08/24 04:38:51;;;;;;;11.47;10.47;;;14.10;99.90;;;;;;5050602;28;20220;-78
2022/08/24 04:41:37;;;;;;;10.80;9.90;;;14.10;99.90;;;;;;5067327;28;20229;-77
2022/08/24 04:44:04;;;;;;;10.33;9.53;;;14.10;99.90;;;;;;5045248;28;20232;-77
2022/08/24 04:46:34;;;;;;;11.60;10.40;;;14.10;99.90;;;;;;5046674;28;20203;-78
2022/08/24 04:49:01;;;;;;;11.63;10.50;;;14.10;99.90;;;;;;5048641;28;20203;-76
2022/08/24 04:51:28;;;;;;;11.70;10.77;;;14.10;99.90;;;;;;5047595;28;20221;-79
2022/08/24 04:53:54;;;;;;;11.60;10.40;;;14.10;99.90;;;;;;5065193;28;20203;-78
2022/08/24 04:56:24;;;;;;;10.40;9.60;;;14.10;99.90;;;;;;5043538;28;20241;-78
2022/08/24 04:58:54;;;;;;;10.83;9.93;;;14.10;99.90;;;;;;5048492;28;20220;-79
2022/08/24 05:01:24;;;;;;;10.07;9.10;;;14.20;99.90;;;;;;5045605;28;20219;-79
2022/08/24 05:03:54;;;;;;;9.60;8.90;;;14.30;99.90;;;;;;5038427;28;20259;-79
2022/08/24 05:06:22;;;;;;;9.70;9.00;;;14.40;99.90;;;;;;5032185;28;20207;-81
2022/08/24 05:08:49;;;;;;;9.70;8.90;;;14.50;99.90;;;;;;5071003;28;20209;-78
2022/08/24 05:11:18;;;;;;;10.53;9.83;;;14.60;99.90;;;;;;5049798;28;20251;-77
2022/08/24 05:13:46;;;;;;;9.43;8.73;;;14.70;99.90;;;;;;5044999;28;20208;-78
2022/08/24 05:16:17;;;;;;;10.00;9.20;;;14.80;99.90;;;;;;5044306;28;20218;-77
2022/08/24 05:18:45;;;;;;;9.47;8.77;;;14.90;99.90;;;;;;5042577;28;20230;-79
2022/08/24 05:21:16;;;;;;;10.13;9.37;;;15.00;99.90;;;;;;5048088;28;20221;-78
2022/08/24 05:23:44;;;;;;;10.27;9.47;;;15.10;99.90;;;;;;5044411;28;20210;-79
2022/08/24 05:26:15;;;;;;;9.33;8.73;;;15.20;99.90;;;;;;5048430;28;20649;-78
2022/08/24 05:28:44;;;;;;;9.93;9.20;;;15.40;99.90;;;;;;5045710;28;20293;-78
2022/08/24 05:31:13;;;;;;;9.70;9.00;;;15.60;99.90;;;;;;5045924;28;20590;-78
2022/08/24 05:33:39;;;;;;;9.43;8.73;;;15.70;99.90;;;;;;5045371;28;20616;-77
2022/08/24 05:36:14;;;;;;;9.50;8.80;;;15.90;99.90;;;;;;5067474;28;20201;-78
2022/08/24 05:38:43;;;;;;;8.90;8.30;;;16.10;99.90;;;;;;5042814;28;20206;-78
2022/08/24 05:41:09;;;;;;;8.87;8.17;;;16.30;99.90;;;;;;5034087;28;20249;-79
2022/08/24 05:43:38;;;;;;;8.67;8.07;;;16.50;99.90;;;;;;5042305;28;20272;-78
2022/08/24 05:46:05;;;;;;;9.17;8.37;;;16.60;99.90;;;;;;5066485;28;20206;-78
2022/08/24 05:48:34;;;;;;;9.00;8.30;;;16.80;99.90;;;;;;5046373;28;20663;-77
2022/08/24 05:51:21;;;;;;;8.87;8.27;;;16.90;99.90;;;;;;5073103;28;20231;-78
2022/08/24 05:53:59;;;;;;;4.70;4.20;;;17.10;99.90;;;;;;5046994;28;20241;-78
2022/08/24 05:56:32;;;;;;;6.20;5.70;;;17.20;99.90;;;;;;5040919;28;20618;-78
2022/08/24 05:59:01;;;;;;;5.50;4.67;;;17.30;99.90;;;;;;5047471;28;20229;-78
2022/08/24 06:01:28;;;;;;;6.00;5.50;;;17.40;99.90;;;;;;5043993;28;20713;-78
2022/08/24 06:03:57;;;;;;;5.20;4.70;;;17.50;99.90;;;;;;5040373;28;20659;-78
2022/08/24 06:06:26;;;;;;;6.57;6.07;;;17.60;99.90;;;;;;5048657;28;20209;-78
2022/08/24 06:08:56;;;;;;;4.97;4.57;;;17.70;99.90;;;;;;5043306;28;20196;-78
2022/08/24 06:11:26;;;;;;;4.93;4.43;;;17.80;99.90;;;;;;5045555;28;20218;-78
2022/08/24 06:13:54;;;;;;;4.47;4.07;;;17.90;99.90;;;;;;5063795;28;20582;-78
2022/08/24 06:16:22;;;;;;;5.37;4.40;;;18.00;99.90;;;;;;5044377;28;20202;-81
2022/08/24 06:18:52;;;;;;;4.30;3.90;;;18.10;99.90;;;;;;5079766;28;20672;-81
2022/08/24 06:21:24;;;;;;;4.37;3.97;;;18.10;99.90;;;;;;5051069;28;20249;-78
2022/08/24 06:23:51;;;;;;;4.87;3.90;;;18.20;99.90;;;;;;5045918;28;20245;-78
2022/08/24 06:29:06;;;;;;;4.27;3.90;;;18.30;99.90;;;;;;5043426;28;20191;-79
2022/08/24 06:31:37;;;;;;;4.37;3.97;;;18.40;99.90;;;;;;5044680;28;20253;-79
2022/08/24 06:34:04;;;;;;;4.83;4.03;;;18.50;99.90;;;;;;5045776;28;20673;-78
2022/08/24 06:36:31;;;;;;;4.60;4.03;;;18.50;99.90;;;;;;5044133;28;20195;-78
2022/08/24 06:38:58;;;;;;;4.73;4.27;;;18.50;99.90;;;;;;5079415;28;20195;-79
2022/08/24 06:41:25;;;;;;;8.33;7.73;;;18.60;99.90;;;;;;5049460;28;20717;-77
2022/08/24 06:43:52;;;;;;;7.20;6.50;;;18.70;99.90;;;;;;5065069;28;20252;-77
2022/08/24 06:46:26;;;;;;;7.57;7.00;;;18.80;99.90;;;;;;5045500;28;20227;-78
2022/08/24 06:48:53;;;;;;;7.17;6.57;;;18.90;99.90;;;;;;5068223;28;20199;-79
2022/08/24 06:51:21;;;;;;;6.37;5.87;;;19.00;99.90;;;;;;5044816;28;20254;-78
2022/08/24 06:53:49;;;;;;;7.00;6.40;;;19.10;99.90;;;;;;5084772;28;20204;-78
2022/08/24 06:56:18;;;;;;;5.47;4.20;;;19.30;99.90;;;;;;5045155;28;20214;-78
2022/08/24 06:58:46;;;;;;;8.73;8.17;;;19.40;99.90;;;;;;5053536;28;20646;-78
2022/08/24 07:01:20;;;;;;;5.70;5.20;;;19.50;99.90;;;;;;5045363;28;20298;-78
2022/08/24 07:03:48;;;;;;;4.30;3.87;;;19.60;99.90;;;;;;5045546;28;20264;-78
2022/08/24 07:06:29;;;;;;;4.93;4.47;;;19.70;99.90;;;;;;5047806;28;20936;-78
2022/08/24 07:08:59;;;;;;;5.53;4.10;;;19.80;99.90;;;;;;5046232;28;20202;-78
2022/08/24 07:11:27;;;;;;;4.60;4.20;;;19.80;99.90;;;;;;5048225;28;20221;-78
2022/08/24 07:13:54;;;;;;;4.20;3.80;;;19.90;99.90;;;;;;5044717;28;20574;-78
2022/08/24 07:16:22;;;;;;;4.60;4.20;;;20.00;99.90;;;;;;5050721;28;20205;-78
2022/08/24 07:18:54;;;;;;;7.20;4.20;;;20.00;99.90;;;;;;5043270;28;20298;-77
2022/08/24 07:21:22;;;;;;;4.57;4.00;;;20.20;99.90;;;;;;5047507;28;20694;-78
2022/08/24 07:23:54;;;;;;;4.60;4.20;;;20.30;99.90;;;;;;5045485;28;20294;-78
2022/08/24 07:26:24;;;;;;;7.77;7.07;;;20.60;99.90;;;;;;5048439;28;20199;-78
2022/08/24 07:28:54;;;;;;;8.60;7.83;;;21.10;99.90;;;;;;5046289;28;20195;-79
2022/08/24 07:31:23;;;;;;;5.67;4.23;;;21.20;99.90;;;;;;5087149;28;20245;-79
2022/08/24 07:33:59;;;;;;;10.07;9.37;;;21.60;99.90;;;;;;5038877;28;20245;-76
2022/08/24 07:36:26;;;;;;;4.80;4.40;;;21.90;99.90;;;;;;5038602;28;20215;-78
2022/08/24 07:38:53;;;;;;;8.17;7.53;;;22.20;99.90;;;;;;5024330;28;20207;-78
2022/08/24 07:41:21;;;;;;;5.90;5.03;;;22.60;99.90;;;;;;5051460;28;20232;-78
2022/08/24 07:43:49;;;;;;;5.70;4.80;;;23.00;99.90;;;;;;5046559;28;20195;-79
2022/08/24 07:46:16;;;;;;;8.83;8.13;;;23.30;99.90;;;;;;5047355;28;20199;-77
2022/08/24 07:48:44;;;;;;;9.97;9.13;;;23.70;99.90;;;;;;5047494;28;20623;-77
2022/08/24 07:51:14;;;;;;;7.63;6.97;;;24.10;99.90;;;;;;5069301;22;20635;-77
2022/08/24 07:53:43;;;;;;;8.40;7.70;;;24.40;99.90;;;;;;5048897;28;20667;-78
2022/08/24 07:56:13;;;;;;;4.73;4.23;;;24.70;99.90;;;;;;5043062;28;20262;-77
2022/08/24 07:58:44;;;;;;;8.63;7.87;;;24.90;99.90;;;;;;5037391;28;20229;-76
2022/08/24 08:01:11;;;;;;;7.03;4.83;;;25.10;99.90;;;;;;5049542;28;20664;-77
2022/08/24 08:03:39;;;;;;;4.70;3.77;;;25.30;99.90;;;;;;5030034;28;20572;-77
2022/08/24 08:06:09;;;;;;;7.27;5.93;;;25.40;99.90;;;;;;5052685;28;20301;-78
2022/08/24 08:08:40;;;;;;;6.03;3.93;;;25.60;99.90;;;;;;5041257;28;20659;-77
2022/08/24 08:11:08;;;;;;;8.13;7.53;;;25.80;99.90;;;;;;5052209;28;20774;-77
2022/08/24 08:13:35;;;;;;;7.97;7.37;;;25.90;99.90;;;;;;5048040;28;20199;-78
2022/08/24 08:16:04;;;;;;;4.80;4.40;;;26.30;99.90;;;;;;5037405;28;20198;-78
2022/08/24 08:18:31;;;;;;;8.67;7.77;;;26.60;99.90;;;;;;5048364;28;20205;-78
2022/08/24 08:21:02;;;;;;;8.50;7.43;;;26.90;99.90;;;;;;5045677;28;20683;-78
2022/08/24 08:26:20;;;;;;;3.93;3.63;;;26.80;99.90;;;;;;5022394;28;20228;-78
2022/08/24 08:29:01;;;;;;;9.67;4.53;;;26.90;99.90;;;;;;5053549;28;20225;-77
2022/08/24 08:31:29;;;;;;;5.23;4.33;;;26.60;99.90;;;;;;5049721;28;20433;-78
2022/08/24 08:33:56;;;;;;;5.50;5.07;;;26.90;99.90;;;;;;5021087;28;20200;-77
2022/08/24 08:36:24;;;;;;;7.27;6.70;;;26.80;99.90;;;;;;5049062;28;20206;-79
2022/08/24 08:38:51;;;;;;;7.67;7.07;;;26.90;99.90;;;;;;5047620;28;20203;-78
2022/08/24 08:42:03;;;;;;;5.60;5.10;;;27.30;99.90;;;;;;5052784;28;20294;-76
2022/08/24 08:44:46;;;;;;;5.87;5.37;;;27.50;99.90;;;;;;5043620;28;20234;-78
2022/08/24 08:47:27;;;;;;;7.63;7.03;;;27.30;99.90;;;;;;5062864;28;20198;-78
2022/08/24 08:50:05;;;;;;;7.27;6.77;;;27.50;99.90;;;;;;5049022;28;20675;-77
2022/08/24 08:53:24;;;;;;;5.17;3.70;;;27.80;99.90;;;;;;5049642;28;20579;-78
2022/08/24 08:56:02;;;;;;;5.80;4.00;;;28.10;99.90;;;;;;4998533;28;20193;-78
2022/08/24 08:58:52;;;;;;;8.00;7.23;;;28.20;99.90;;;;;;4991844;28;20239;-78
2022/08/24 09:01:28;;;;;;;8.23;7.63;;;28.30;99.90;;;;;;5028607;28;20211;-78
2022/08/24 09:04:34;;;;;;;4.03;3.63;;;28.20;99.90;;;;;;5042654;28;20199;-78
2022/08/24 09:07:26;;;;;;;4.13;3.53;;;28.40;99.90;;;;;;5046363;28;20552;-77
2022/08/24 09:10:41;;;;;;;4.10;3.67;;;28.40;99.90;;;;;;5054882;28;20672;-78
2022/08/24 09:13:27;;;;;;;5.90;5.40;;;28.60;99.90;;;;;;5055245;28;20276;-81
2022/08/24 09:16:24;;;;;;;6.10;5.60;;;28.60;99.70;;;;;;5046752;28;20218;-81
2022/08/24 09:19:14;;;;;;;7.33;6.83;;;29.10;98.30;;;;;;5049992;28;20716;-80
2022/08/24 09:22:00;;;;;;;7.63;6.97;;;29.20;97.90;;;;;;5063693;28;20277;-81
2022/08/24 09:25:01;;;;;;;3.57;3.27;;;29.40;99.00;;;;;;5047213;28;20198;-81
2022/08/24 09:27:56;;;;;;;3.80;2.77;;;29.70;95.00;;;;;;5021921;28;20294;-81
2022/08/24 09:30:25;;;;;;;3.53;2.90;;;29.30;96.70;;;;;;5060527;28;20578;-81
2022/08/24 09:33:05;;;;;;;4.10;2.90;;;29.30;95.30;;;;;;5062844;28;20719;-80
2022/08/24 09:35:41;;;;;;;4.23;2.97;;;29.00;94.50;;;;;;5050786;28;20200;-80
2022/08/24 09:38:20;;;;;;;3.67;3.33;;;28.80;94.80;;;;;;5054608;28;20225;-81
2022/08/24 09:41:18;;;;;;;4.87;4.57;;;28.70;94.10;;;;;;5053500;28;20221;-81
2022/08/24 09:44:16;;;;;;;6.20;5.70;;;29.40;95.40;;;;;;5033650;28;20215;-80
2022/08/24 09:47:17;;;;;;;6.70;6.20;;;29.90;94.00;;;;;;5052631;28;20276;-81
2022/08/24 09:50:25;;;;;;;7.33;6.23;;;29.60;94.50;;;;;;5013370;28;20227;-81
2022/08/24 09:53:41;;;;;;;2.60;2.40;;;29.70;94.10;;;;;;5064302;28;20242;-82
2022/08/24 09:56:31;;;;;;;4.07;2.37;;;29.60;90.70;;;;;;5001551;28;20198;-81
2022/08/24 09:59:12;;;;;;;2.80;2.60;;;29.60;92.30;;;;;;5051024;28;20202;-82
2022/08/24 10:01:49;;;;;;;3.27;2.60;;;29.80;92.50;;;;;;5041621;28;20242;-82
2022/08/24 10:04:26;;;;;;;3.37;2.60;;;29.70;92.60;;;;;;5045262;28;20233;-81
2022/08/24 10:07:07;;;;;;;2.63;2.43;;;30.00;92.90;;;;;;5047766;28;20210;-81
2022/08/24 10:09:52;;;;;;;4.50;2.50;;;30.20;92.70;;;;;;5056838;28;20242;-81
2022/08/24 10:12:31;;;;;;;2.70;2.33;;;30.20;92.30;;;;;;5032960;28;20647;-81
2022/08/24 10:15:04;;;;;;;4.47;2.50;;;29.90;90.20;;;;;;5064959;28;20196;-80
2022/08/24 10:17:44;;;;;;;3.87;2.50;;;29.80;91.50;;;;;;5048532;28;20230;-81
2022/08/24 10:20:22;;;;;;;4.83;2.60;;;29.50;92.00;;;;;;5061292;28;20229;-81
2022/08/24 10:23:03;;;;;;;3.03;2.80;;;29.30;91.80;;;;;;5054452;28;20221;-80
2022/08/24 10:25:35;;;;;;;3.73;3.10;;;29.20;92.20;;;;;;5065323;28;20203;-80
2022/08/24 10:28:26;;;;;;;3.47;3.17;;;29.10;92.10;;;;;;5049151;28;20572;-80
2022/08/24 10:31:02;;;;;;;6.70;3.50;;;28.80;90.70;;;;;;5048243;28;20217;-80
2022/08/24 10:33:33;;;;;;;4.80;4.40;;;28.50;91.00;;;;;;5048059;28;20457;-81
2022/08/24 10:36:26;;;;;;;5.23;4.40;;;28.50;91.70;;;;;;5039421;28;20243;-79
2022/08/24 10:45:17;;;;;;;5.03;4.40;;;29.20;90.60;;;;;;5051188;28;20278;-80
2022/08/24 10:48:04;;;;;;;4.60;4.30;;;28.70;90.90;;;;;;5045048;28;20249;-82
2022/08/24 10:50:46;;;;;;;4.20;3.93;;;28.70;90.90;;;;;;5075462;28;20674;-80
2022/08/24 10:53:34;;;;;;;5.20;4.70;;;28.60;91.50;;;;;;5060415;28;20218;-80
2022/08/24 10:56:09;;;;;;;2.83;2.67;;;28.50;91.80;;;;;;5068881;28;20194;-80
2022/08/24 10:58:56;;;;;;;5.13;4.53;;;28.70;91.80;;;;;;5051047;28;20282;-82
2022/08/24 11:01:27;;;;;;;4.47;4.07;;;28.40;91.50;;;;;;5036945;28;20257;-80
2022/08/24 11:03:59;;;;;;;5.87;4.60;;;28.40;92.70;;;;;;5073518;28;20622;-80
2022/08/24 11:06:30;;;;;;;4.30;4.00;;;28.30;92.10;;;;;;5066601;28;20227;-79
2022/08/24 11:09:01;;;;;;;5.27;4.87;;;28.10;91.20;;;;;;5070420;28;20206;-81
2022/08/24 11:11:32;;;;;;;6.30;5.70;;;28.00;91.90;;;;;;5066459;28;20210;-80
2022/08/24 11:14:01;;;;;;;5.50;5.10;;;28.30;92.80;;;;;;5040353;28;20564;-79
2022/08/24 11:16:32;;;;;;;5.60;5.20;;;28.30;91.60;;;;;;5035813;28;20203;-81
2022/08/24 11:19:01;;;;;;;6.30;5.47;;;28.40;92.00;;;;;;5058161;28;20203;-80
2022/08/24 11:21:36;;;;;;;6.00;5.30;;;28.30;90.90;;;;;;5050465;28;20226;-80
2022/08/24 11:24:04;;;;;;;5.60;5.10;;;28.20;91.90;;;;;;5060968;28;20241;-80
2022/08/24 11:26:50;;;;;;;5.90;5.40;;;28.30;91.50;;;;;;5069468;28;20265;-81
2022/08/24 11:29:17;;;;;;;5.70;5.10;;;28.30;91.20;;;;;;5052489;28;20203;-80
2022/08/24 11:31:49;;;;;;;5.70;5.30;;;28.30;91.50;;;;;;5043178;28;20219;-80
2022/08/24 11:34:19;;;;;;;5.80;5.40;;;28.50;90.30;;;;;;5053203;28;20738;-81
2022/08/24 11:36:46;;;;;;;5.60;5.27;;;28.50;91.00;;;;;;5064063;28;20191;-80
2022/08/24 11:39:19;;;;;;;5.87;5.47;;;28.50;91.50;;;;;;5047686;28;20246;-81
2022/08/24 11:41:56;;;;;;;5.70;5.30;;;28.30;91.10;;;;;;5051803;28;20491;-79
2022/08/24 11:44:38;;;;;;;6.03;5.50;;;28.10;90.70;;;;;;5045442;28;20206;-79
2022/08/24 11:47:46;;;;;;;5.40;5.07;;;28.00;91.10;;;;;;5040778;28;20269;-79
2022/08/24 11:50:27;;;;;;;5.30;5.00;;;27.80;89.00;;;;;;5016633;28;20195;-78
2022/08/24 11:53:06;;;;;;;4.63;4.33;;;27.80;90.50;;;;;;5061290;28;20227;-79
2022/08/24 11:55:39;;;;;;;3.73;3.40;;;27.70;85.40;;;;;;5036098;28;20205;-79
2022/08/24 11:58:12;;;;;;;4.60;4.30;;;27.70;89.10;;;;;;5067426;28;20232;-78
2022/08/24 12:00:46;;;;;;;3.77;3.50;;;27.80;90.10;;;;;;5063577;28;20212;-78
2022/08/24 12:03:30;;;;;;;5.17;4.70;;;27.80;90.10;;;;;;5058903;28;20230;-78
2022/08/24 12:06:04;;;;;;;5.30;5.00;;;27.90;89.70;;;;;;5071531;28;20271;-78
2022/08/24 12:08:37;;;;;;;5.10;4.70;;;27.90;90.40;;;;;;5035734;28;20273;-79
2022/08/24 12:11:12;;;;;;;4.53;4.27;;;27.80;91.00;;;;;;5055254;28;20197;-79
2022/08/24 12:13:48;;;;;;;3.73;3.53;;;27.80;90.60;;;;;;5055672;28;20206;-78
2022/08/24 12:16:21;;;;;;;4.00;3.80;;;27.70;90.60;;;;;;5058661;28;20274;-79
2022/08/24 12:19:00;;;;;;;4.20;3.80;;;27.70;90.80;;;;;;5064007;28;20206;-79
2022/08/24 12:21:30;;;;;;;3.67;3.47;;;27.50;91.00;;;;;;5049667;28;20227;-79
2022/08/24 12:24:03;;;;;;;6.10;5.70;;;27.40;90.20;;;;;;5064539;28;20262;-81
2022/08/24 12:26:36;;;;;;;6.10;5.70;;;27.60;91.60;;;;;;5048650;28;20714;-79
2022/08/24 12:29:09;;;;;;;6.00;5.60;;;27.60;89.80;;;;;;5063065;28;20194;-79
2022/08/24 12:31:43;;;;;;;6.20;5.70;;;27.80;90.90;;;;;;5081732;28;20240;-79
2022/08/24 12:34:17;;;;;;;3.07;2.67;;;27.70;90.70;;;;;;5074778;28;20190;-79
2022/08/24 12:36:55;;;;;;;5.83;5.50;;;27.50;91.30;;;;;;5072707;28;20191;-79
2022/08/24 12:39:27;;;;;;;3.73;3.43;;;27.40;90.90;;;;;;5066835;28;20202;-79
2022/08/24 12:42:02;;;;;;;4.77;4.47;;;27.40;90.20;;;;;;5065344;28;20288;-79
2022/08/24 12:44:38;;;;;;;2.40;2.20;;;27.40;90.40;;;;;;5041625;28;20202;-77
2022/08/24 12:47:06;;;;;;;2.50;2.30;;;27.30;91.20;;;;;;5065559;28;20225;-79
2022/08/24 12:49:40;;;;;;;2.47;2.27;;;27.40;91.90;;;;;;5044434;28;20656;-79
2022/08/24 12:52:20;;;;;;;2.40;2.20;;;27.50;91.70;;;;;;5048935;28;20231;-78
2022/08/24 12:55:19;;;;;;;2.70;2.20;;;27.50;91.50;;;;;;5063421;28;20191;-78
2022/08/24 12:58:03;;;;;;;2.50;2.30;;;27.60;91.70;;;;;;5053558;28;20195;-79
2022/08/24 13:00:37;;;;;;;2.73;2.30;;;27.60;91.50;;;;;;5051451;28;20248;-78
2022/08/24 13:03:07;;;;;;;2.87;2.57;;;27.60;91.70;;;;;;5069112;28;20222;-78
2022/08/24 13:05:44;;;;;;;2.57;2.37;;;27.60;92.10;;;;;;5070502;28;20199;-78
2022/08/24 13:08:15;;;;;;;2.50;2.30;;;27.60;91.10;;;;;;5058500;28;20720;-78
2022/08/24 13:10:51;;;;;;;2.60;2.40;;;27.60;91.90;;;;;;5050939;28;20206;-78
2022/08/24 13:13:36;;;;;;;2.43;2.23;;;27.70;92.00;;;;;;5058126;28;20818;-79
2022/08/24 13:16:04;;;;;;;2.53;2.33;;;27.90;91.60;;;;;;5065673;28;20249;-79
2022/08/24 13:19:11;;;;;;;2.80;2.40;;;27.80;92.10;;;;;;5050830;28;20203;-79
2022/08/24 13:21:49;;;;;;;2.50;2.30;;;27.80;92.50;;;;;;5050013;28;20215;-79
2022/08/24 13:24:43;;;;;;;2.97;2.50;;;27.90;92.50;;;;;;5028587;28;20584;-79
2022/08/24 13:27:45;;;;;;;2.70;2.50;;;27.90;93.40;;;;;;5039213;28;20708;-80
2022/08/24 13:30:22;;;;;;;2.30;2.20;;;27.90;93.10;;;;;;5068303;28;20741;-79
2022/08/24 13:33:02;;;;;;;2.80;2.60;;;28.00;92.90;;;;;;5052239;28;20279;-79